sensor_id;sensor_type;location;lat;lon;timestamp;P1;durP1;ratioP1;P2;durP2;ratioP2
84591;SDS011;74826;50.812;16.038;2024-01-06T00:02:05;16.38;;;8.00;;
84591;SDS011;74826;50.812;16.038;2024-01-06T00:04:31;15.82;;;8.25;;
84591;SDS011;74826;50.812;16.038;2024-01-06T00:06:57;15.48;;;7.45;;
84591;SDS011;74826;50.812;16.038;2024-01-06T00:09:22;20.13;;;8.48;;
84591;SDS011;74826;50.812;16.038;2024-01-06T00:11:47;23.65;;;8.93;;
84591;SDS011;74826;50.812;16.038;2024-01-06T00:14:13;21.70;;;10.20;;
84591;SDS011;74826;50.812;16.038;2024-01-06T00:16:38;20.08;;;9.38;;
84591;SDS011;74826;50.812;16.038;2024-01-06T00:19:03;26.33;;;11.02;;
84591;SDS011;74826;50.812;16.038;2024-01-06T00:21:29;21.38;;;11.07;;
84591;SDS011;74826;50.812;16.038;2024-01-06T00:23:54;20.58;;;8.18;;
84591;SDS011;74826;50.812;16.038;2024-01-06T00:26:22;17.77;;;9.88;;
84591;SDS011;74826;50.812;16.038;2024-01-06T00:28:49;22.30;;;9.38;;
84591;SDS011;74826;50.812;16.038;2024-01-06T00:31:15;18.38;;;8.48;;
84591;SDS011;74826;50.812;16.038;2024-01-06T00:33:42;22.75;;;9.70;;
84591;SDS011;74826;50.812;16.038;2024-01-06T00:36:07;22.02;;;10.60;;
84591;SDS011;74826;50.812;16.038;2024-01-06T00:38:33;21.55;;;10.15;;
84591;SDS011;74826;50.812;16.038;2024-01-06T00:41:00;24.17;;;10.05;;
84591;SDS011;74826;50.812;16.038;2024-01-06T00:43:25;27.15;;;10.48;;
84591;SDS011;74826;50.812;16.038;2024-01-06T00:45:51;26.60;;;11.35;;
84591;SDS011;74826;50.812;16.038;2024-01-06T00:48:16;20.65;;;9.57;;
84591;SDS011;74826;50.812;16.038;2024-01-06T00:50:41;21.35;;;8.52;;
84591;SDS011;74826;50.812;16.038;2024-01-06T00:53:07;18.45;;;9.68;;
84591;SDS011;74826;50.812;16.038;2024-01-06T00:55:32;21.15;;;9.48;;
84591;SDS011;74826;50.812;16.038;2024-01-06T00:57:57;20.48;;;10.48;;
84591;SDS011;74826;50.812;16.038;2024-01-06T01:00:23;19.85;;;8.82;;
84591;SDS011;74826;50.812;16.038;2024-01-06T01:02:48;17.58;;;9.35;;
84591;SDS011;74826;50.812;16.038;2024-01-06T01:05:13;18.50;;;8.18;;
84591;SDS011;74826;50.812;16.038;2024-01-06T01:07:39;18.15;;;8.32;;
84591;SDS011;74826;50.812;16.038;2024-01-06T01:10:04;14.43;;;8.25;;
84591;SDS011;74826;50.812;16.038;2024-01-06T01:12:30;22.27;;;9.10;;
84591;SDS011;74826;50.812;16.038;2024-01-06T01:14:56;20.25;;;9.60;;
84591;SDS011;74826;50.812;16.038;2024-01-06T01:17:22;18.98;;;8.15;;
84591;SDS011;74826;50.812;16.038;2024-01-06T01:19:47;18.05;;;8.43;;
84591;SDS011;74826;50.812;16.038;2024-01-06T01:22:12;17.42;;;8.23;;
84591;SDS011;74826;50.812;16.038;2024-01-06T01:24:38;17.58;;;8.98;;
84591;SDS011;74826;50.812;16.038;2024-01-06T01:27:03;15.32;;;8.38;;
84591;SDS011;74826;50.812;16.038;2024-01-06T01:29:29;20.10;;;8.25;;
84591;SDS011;74826;50.812;16.038;2024-01-06T01:31:54;22.33;;;10.02;;
84591;SDS011;74826;50.812;16.038;2024-01-06T01:34:19;17.90;;;9.05;;
84591;SDS011;74826;50.812;16.038;2024-01-06T01:36:45;19.02;;;8.68;;
84591;SDS011;74826;50.812;16.038;2024-01-06T01:39:10;19.17;;;9.60;;
84591;SDS011;74826;50.812;16.038;2024-01-06T01:41:36;17.73;;;9.10;;
84591;SDS011;74826;50.812;16.038;2024-01-06T01:44:01;17.05;;;8.90;;
84591;SDS011;74826;50.812;16.038;2024-01-06T01:46:30;18.25;;;8.68;;
84591;SDS011;74826;50.812;16.038;2024-01-06T01:48:56;21.48;;;10.23;;
84591;SDS011;74826;50.812;16.038;2024-01-06T01:51:23;46.65;;;15.32;;
84591;SDS011;74826;50.812;16.038;2024-01-06T01:53:51;26.33;;;10.45;;
84591;SDS011;74826;50.812;16.038;2024-01-06T01:56:17;21.13;;;8.57;;
84591;SDS011;74826;50.812;16.038;2024-01-06T01:58:44;20.42;;;8.88;;
84591;SDS011;74826;50.812;16.038;2024-01-06T02:01:10;15.73;;;7.20;;
84591;SDS011;74826;50.812;16.038;2024-01-06T02:03:35;20.88;;;10.02;;
84591;SDS011;74826;50.812;16.038;2024-01-06T02:06:02;18.80;;;8.50;;
84591;SDS011;74826;50.812;16.038;2024-01-06T02:08:28;22.10;;;8.30;;
84591;SDS011;74826;50.812;16.038;2024-01-06T02:10:54;12.35;;;6.85;;
84591;SDS011;74826;50.812;16.038;2024-01-06T02:13:21;20.20;;;8.57;;
84591;SDS011;74826;50.812;16.038;2024-01-06T02:15:46;21.52;;;11.18;;
84591;SDS011;74826;50.812;16.038;2024-01-06T02:18:12;12.85;;;6.78;;
84591;SDS011;74826;50.812;16.038;2024-01-06T02:20:37;12.65;;;6.82;;
84591;SDS011;74826;50.812;16.038;2024-01-06T02:23:05;18.30;;;8.50;;
84591;SDS011;74826;50.812;16.038;2024-01-06T02:25:30;15.85;;;8.85;;
84591;SDS011;74826;50.812;16.038;2024-01-06T02:27:56;17.55;;;8.43;;
84591;SDS011;74826;50.812;16.038;2024-01-06T02:30:21;40.15;;;15.73;;
84591;SDS011;74826;50.812;16.038;2024-01-06T02:32:47;20.48;;;11.05;;
84591;SDS011;74826;50.812;16.038;2024-01-06T02:35:12;20.38;;;10.13;;
84591;SDS011;74826;50.812;16.038;2024-01-06T02:37:37;18.65;;;8.68;;
84591;SDS011;74826;50.812;16.038;2024-01-06T02:40:03;15.82;;;9.13;;
84591;SDS011;74826;50.812;16.038;2024-01-06T02:42:28;16.52;;;8.85;;
84591;SDS011;74826;50.812;16.038;2024-01-06T02:44:54;16.88;;;8.63;;
84591;SDS011;74826;50.812;16.038;2024-01-06T02:47:19;23.88;;;14.60;;
84591;SDS011;74826;50.812;16.038;2024-01-06T02:49:45;24.95;;;14.25;;
84591;SDS011;74826;50.812;16.038;2024-01-06T02:52:10;17.95;;;8.68;;
84591;SDS011;74826;50.812;16.038;2024-01-06T02:54:36;17.67;;;11.07;;
84591;SDS011;74826;50.812;16.038;2024-01-06T02:57:01;19.52;;;11.38;;
84591;SDS011;74826;50.812;16.038;2024-01-06T02:59:26;17.98;;;9.45;;
84591;SDS011;74826;50.812;16.038;2024-01-06T03:01:52;17.58;;;8.95;;
84591;SDS011;74826;50.812;16.038;2024-01-06T03:04:17;18.08;;;9.50;;
84591;SDS011;74826;50.812;16.038;2024-01-06T03:06:42;17.10;;;9.23;;
84591;SDS011;74826;50.812;16.038;2024-01-06T03:09:08;16.70;;;8.45;;
84591;SDS011;74826;50.812;16.038;2024-01-06T03:11:33;18.48;;;7.60;;
84591;SDS011;74826;50.812;16.038;2024-01-06T03:13:58;17.67;;;8.45;;
84591;SDS011;74826;50.812;16.038;2024-01-06T03:16:24;13.02;;;7.75;;
84591;SDS011;74826;50.812;16.038;2024-01-06T03:18:49;22.67;;;10.95;;
84591;SDS011;74826;50.812;16.038;2024-01-06T03:21:18;18.30;;;8.93;;
84591;SDS011;74826;50.812;16.038;2024-01-06T03:23:45;19.85;;;8.88;;
84591;SDS011;74826;50.812;16.038;2024-01-06T03:26:11;21.33;;;10.60;;
84591;SDS011;74826;50.812;16.038;2024-01-06T03:28:36;17.13;;;7.53;;
84591;SDS011;74826;50.812;16.038;2024-01-06T03:31:02;13.02;;;7.07;;
84591;SDS011;74826;50.812;16.038;2024-01-06T03:33:27;14.98;;;8.05;;
84591;SDS011;74826;50.812;16.038;2024-01-06T03:35:53;16.75;;;8.95;;
84591;SDS011;74826;50.812;16.038;2024-01-06T03:38:18;16.70;;;7.88;;
84591;SDS011;74826;50.812;16.038;2024-01-06T03:40:43;12.82;;;7.18;;
84591;SDS011;74826;50.812;16.038;2024-01-06T03:43:09;29.58;;;11.77;;
84591;SDS011;74826;50.812;16.038;2024-01-06T03:45:34;78.30;;;19.67;;
84591;SDS011;74826;50.812;16.038;2024-01-06T03:48:00;20.33;;;8.85;;
84591;SDS011;74826;50.812;16.038;2024-01-06T03:50:25;19.73;;;9.07;;
84591;SDS011;74826;50.812;16.038;2024-01-06T03:52:50;19.17;;;8.52;;
84591;SDS011;74826;50.812;16.038;2024-01-06T03:55:16;17.58;;;7.72;;
84591;SDS011;74826;50.812;16.038;2024-01-06T03:57:41;15.52;;;6.80;;
84591;SDS011;74826;50.812;16.038;2024-01-06T04:00:07;14.77;;;7.00;;
84591;SDS011;74826;50.812;16.038;2024-01-06T04:02:33;17.92;;;7.38;;
84591;SDS011;74826;50.812;16.038;2024-01-06T04:04:59;17.73;;;8.05;;
84591;SDS011;74826;50.812;16.038;2024-01-06T04:07:24;14.93;;;7.63;;
84591;SDS011;74826;50.812;16.038;2024-01-06T04:09:49;19.20;;;8.88;;
84591;SDS011;74826;50.812;16.038;2024-01-06T04:12:15;18.88;;;7.75;;
84591;SDS011;74826;50.812;16.038;2024-01-06T04:14:40;14.63;;;8.45;;
84591;SDS011;74826;50.812;16.038;2024-01-06T04:17:06;18.80;;;8.13;;
84591;SDS011;74826;50.812;16.038;2024-01-06T04:19:31;23.40;;;9.60;;
84591;SDS011;74826;50.812;16.038;2024-01-06T04:21:57;19.02;;;8.93;;
84591;SDS011;74826;50.812;16.038;2024-01-06T04:24:22;29.55;;;10.25;;
84591;SDS011;74826;50.812;16.038;2024-01-06T04:26:47;20.05;;;9.20;;
84591;SDS011;74826;50.812;16.038;2024-01-06T04:29:13;20.73;;;9.15;;
84591;SDS011;74826;50.812;16.038;2024-01-06T04:31:39;19.30;;;9.65;;
84591;SDS011;74826;50.812;16.038;2024-01-06T04:34:05;16.75;;;8.68;;
84591;SDS011;74826;50.812;16.038;2024-01-06T04:36:30;19.05;;;9.25;;
84591;SDS011;74826;50.812;16.038;2024-01-06T04:38:56;16.13;;;8.15;;
84591;SDS011;74826;50.812;16.038;2024-01-06T04:41:21;18.33;;;9.65;;
84591;SDS011;74826;50.812;16.038;2024-01-06T04:43:46;17.40;;;8.15;;
84591;SDS011;74826;50.812;16.038;2024-01-06T04:46:12;18.50;;;9.02;;
84591;SDS011;74826;50.812;16.038;2024-01-06T04:48:39;20.67;;;8.95;;
84591;SDS011;74826;50.812;16.038;2024-01-06T04:51:05;20.17;;;9.77;;
84591;SDS011;74826;50.812;16.038;2024-01-06T04:53:34;20.20;;;8.50;;
84591;SDS011;74826;50.812;16.038;2024-01-06T04:56:00;19.75;;;9.30;;
84591;SDS011;74826;50.812;16.038;2024-01-06T04:58:25;19.00;;;8.52;;
84591;SDS011;74826;50.812;16.038;2024-01-06T05:00:51;20.27;;;9.13;;
84591;SDS011;74826;50.812;16.038;2024-01-06T05:03:17;22.33;;;9.60;;
84591;SDS011;74826;50.812;16.038;2024-01-06T05:05:43;18.95;;;10.13;;
84591;SDS011;74826;50.812;16.038;2024-01-06T05:08:08;22.20;;;10.32;;
84591;SDS011;74826;50.812;16.038;2024-01-06T05:10:34;19.25;;;7.80;;
84591;SDS011;74826;50.812;16.038;2024-01-06T05:12:59;20.33;;;9.43;;
84591;SDS011;74826;50.812;16.038;2024-01-06T05:15:24;19.65;;;10.27;;
84591;SDS011;74826;50.812;16.038;2024-01-06T05:17:50;23.17;;;11.35;;
84591;SDS011;74826;50.812;16.038;2024-01-06T05:20:15;24.30;;;12.80;;
84591;SDS011;74826;50.812;16.038;2024-01-06T05:22:40;22.63;;;11.73;;
84591;SDS011;74826;50.812;16.038;2024-01-06T05:25:06;23.10;;;13.35;;
84591;SDS011;74826;50.812;16.038;2024-01-06T05:27:32;25.55;;;13.63;;
84591;SDS011;74826;50.812;16.038;2024-01-06T05:29:57;25.45;;;11.18;;
84591;SDS011;74826;50.812;16.038;2024-01-06T05:32:22;23.38;;;11.27;;
84591;SDS011;74826;50.812;16.038;2024-01-06T05:34:48;24.20;;;10.82;;
84591;SDS011;74826;50.812;16.038;2024-01-06T05:37:14;28.73;;;13.05;;
84591;SDS011;74826;50.812;16.038;2024-01-06T05:39:39;25.42;;;12.40;;
84591;SDS011;74826;50.812;16.038;2024-01-06T05:42:05;23.42;;;13.23;;
84591;SDS011;74826;50.812;16.038;2024-01-06T05:44:31;29.38;;;13.40;;
84591;SDS011;74826;50.812;16.038;2024-01-06T05:46:56;27.38;;;12.60;;
84591;SDS011;74826;50.812;16.038;2024-01-06T05:49:22;22.48;;;12.10;;
84591;SDS011;74826;50.812;16.038;2024-01-06T05:51:48;25.30;;;12.68;;
84591;SDS011;74826;50.812;16.038;2024-01-06T05:54:14;28.25;;;13.15;;
84591;SDS011;74826;50.812;16.038;2024-01-06T05:56:39;27.17;;;12.93;;
84591;SDS011;74826;50.812;16.038;2024-01-06T05:59:05;28.92;;;13.20;;
84591;SDS011;74826;50.812;16.038;2024-01-06T06:01:30;25.65;;;13.25;;
84591;SDS011;74826;50.812;16.038;2024-01-06T06:03:56;24.48;;;12.15;;
84591;SDS011;74826;50.812;16.038;2024-01-06T06:06:21;29.73;;;13.93;;
84591;SDS011;74826;50.812;16.038;2024-01-06T06:08:46;27.83;;;12.45;;
84591;SDS011;74826;50.812;16.038;2024-01-06T06:11:13;29.17;;;12.10;;
84591;SDS011;74826;50.812;16.038;2024-01-06T06:13:41;23.05;;;11.13;;
84591;SDS011;74826;50.812;16.038;2024-01-06T06:16:10;27.73;;;12.98;;
84591;SDS011;74826;50.812;16.038;2024-01-06T06:18:37;25.63;;;11.30;;
84591;SDS011;74826;50.812;16.038;2024-01-06T06:21:03;23.58;;;11.52;;
84591;SDS011;74826;50.812;16.038;2024-01-06T06:23:29;27.52;;;12.30;;
84591;SDS011;74826;50.812;16.038;2024-01-06T06:25:55;30.65;;;12.90;;
84591;SDS011;74826;50.812;16.038;2024-01-06T06:28:21;23.17;;;11.70;;
84591;SDS011;74826;50.812;16.038;2024-01-06T06:30:46;26.58;;;13.32;;
84591;SDS011;74826;50.812;16.038;2024-01-06T06:33:12;29.42;;;13.98;;
84591;SDS011;74826;50.812;16.038;2024-01-06T06:35:37;31.48;;;15.07;;
84591;SDS011;74826;50.812;16.038;2024-01-06T06:38:03;69.95;;;21.15;;
84591;SDS011;74826;50.812;16.038;2024-01-06T06:40:28;88.55;;;24.38;;
84591;SDS011;74826;50.812;16.038;2024-01-06T06:42:55;104.72;;;30.38;;
84591;SDS011;74826;50.812;16.038;2024-01-06T06:45:20;79.40;;;23.85;;
84591;SDS011;74826;50.812;16.038;2024-01-06T06:47:47;72.95;;;21.98;;
84591;SDS011;74826;50.812;16.038;2024-01-06T06:50:14;89.07;;;25.42;;
84591;SDS011;74826;50.812;16.038;2024-01-06T06:52:44;66.43;;;20.73;;
84591;SDS011;74826;50.812;16.038;2024-01-06T06:55:09;74.75;;;21.27;;
84591;SDS011;74826;50.812;16.038;2024-01-06T06:57:35;49.28;;;14.80;;
84591;SDS011;74826;50.812;16.038;2024-01-06T07:00:00;39.47;;;13.98;;
84591;SDS011;74826;50.812;16.038;2024-01-06T07:02:26;34.17;;;12.57;;
84591;SDS011;74826;50.812;16.038;2024-01-06T07:04:51;38.28;;;13.13;;
84591;SDS011;74826;50.812;16.038;2024-01-06T07:07:17;22.98;;;11.18;;
84591;SDS011;74826;50.812;16.038;2024-01-06T07:09:42;29.30;;;13.27;;
84591;SDS011;74826;50.812;16.038;2024-01-06T07:12:07;31.88;;;11.23;;
84591;SDS011;74826;50.812;16.038;2024-01-06T07:14:33;38.00;;;14.25;;
84591;SDS011;74826;50.812;16.038;2024-01-06T07:16:58;33.58;;;14.13;;
84591;SDS011;74826;50.812;16.038;2024-01-06T07:19:24;30.77;;;12.60;;
84591;SDS011;74826;50.812;16.038;2024-01-06T07:21:50;32.38;;;13.77;;
84591;SDS011;74826;50.812;16.038;2024-01-06T07:24:15;52.38;;;15.93;;
84591;SDS011;74826;50.812;16.038;2024-01-06T07:26:40;43.72;;;16.33;;
84591;SDS011;74826;50.812;16.038;2024-01-06T07:29:06;42.47;;;19.48;;
84591;SDS011;74826;50.812;16.038;2024-01-06T07:31:33;58.92;;;19.98;;
84591;SDS011;74826;50.812;16.038;2024-01-06T07:33:59;48.33;;;20.13;;
84591;SDS011;74826;50.812;16.038;2024-01-06T07:36:24;46.65;;;19.83;;
84591;SDS011;74826;50.812;16.038;2024-01-06T07:38:50;45.28;;;20.17;;
84591;SDS011;74826;50.812;16.038;2024-01-06T07:41:17;53.05;;;19.98;;
84591;SDS011;74826;50.812;16.038;2024-01-06T07:43:42;40.00;;;18.35;;
84591;SDS011;74826;50.812;16.038;2024-01-06T07:46:08;43.88;;;19.50;;
84591;SDS011;74826;50.812;16.038;2024-01-06T07:51:00;39.88;;;17.55;;
84591;SDS011;74826;50.812;16.038;2024-01-06T07:53:26;47.30;;;20.02;;
84591;SDS011;74826;50.812;16.038;2024-01-06T07:55:52;47.10;;;21.52;;
84591;SDS011;74826;50.812;16.038;2024-01-06T07:58:17;50.67;;;21.48;;
84591;SDS011;74826;50.812;16.038;2024-01-06T08:00:43;46.13;;;20.70;;
84591;SDS011;74826;50.812;16.038;2024-01-06T08:03:08;56.05;;;21.95;;
84591;SDS011;74826;50.812;16.038;2024-01-06T08:05:33;57.28;;;25.58;;
84591;SDS011;74826;50.812;16.038;2024-01-06T08:07:59;63.05;;;26.48;;
84591;SDS011;74826;50.812;16.038;2024-01-06T08:10:24;55.60;;;26.73;;
84591;SDS011;74826;50.812;16.038;2024-01-06T08:12:49;59.35;;;29.10;;
84591;SDS011;74826;50.812;16.038;2024-01-06T08:15:15;55.80;;;26.13;;
84591;SDS011;74826;50.812;16.038;2024-01-06T08:17:40;61.10;;;26.05;;
84591;SDS011;74826;50.812;16.038;2024-01-06T08:20:06;62.10;;;27.25;;
84591;SDS011;74826;50.812;16.038;2024-01-06T08:22:34;49.25;;;22.23;;
84591;SDS011;74826;50.812;16.038;2024-01-06T08:24:59;49.13;;;23.95;;
84591;SDS011;74826;50.812;16.038;2024-01-06T08:27:25;48.92;;;23.75;;
84591;SDS011;74826;50.812;16.038;2024-01-06T08:29:50;45.80;;;21.83;;
84591;SDS011;74826;50.812;16.038;2024-01-06T08:32:15;53.42;;;21.80;;
84591;SDS011;74826;50.812;16.038;2024-01-06T08:34:41;47.13;;;21.25;;
84591;SDS011;74826;50.812;16.038;2024-01-06T08:37:07;46.63;;;21.92;;
84591;SDS011;74826;50.812;16.038;2024-01-06T08:39:32;45.50;;;21.80;;
84591;SDS011;74826;50.812;16.038;2024-01-06T08:41:58;47.10;;;21.27;;
84591;SDS011;74826;50.812;16.038;2024-01-06T08:44:23;49.33;;;22.02;;
84591;SDS011;74826;50.812;16.038;2024-01-06T08:46:49;54.00;;;24.33;;
84591;SDS011;74826;50.812;16.038;2024-01-06T08:49:15;47.53;;;22.60;;
84591;SDS011;74826;50.812;16.038;2024-01-06T08:51:41;52.58;;;25.88;;
84591;SDS011;74826;50.812;16.038;2024-01-06T08:54:06;57.60;;;24.38;;
84591;SDS011;74826;50.812;16.038;2024-01-06T08:56:34;79.55;;;36.25;;
84591;SDS011;74826;50.812;16.038;2024-01-06T08:59:00;85.88;;;35.20;;
84591;SDS011;74826;50.812;16.038;2024-01-06T09:01:26;84.75;;;34.80;;
84591;SDS011;74826;50.812;16.038;2024-01-06T09:03:52;96.97;;;39.88;;
84591;SDS011;74826;50.812;16.038;2024-01-06T09:06:17;87.20;;;36.53;;
84591;SDS011;74826;50.812;16.038;2024-01-06T09:08:42;114.10;;;48.47;;
84591;SDS011;74826;50.812;16.038;2024-01-06T09:11:08;110.53;;;50.45;;
84591;SDS011;74826;50.812;16.038;2024-01-06T09:13:33;92.65;;;43.42;;
84591;SDS011;74826;50.812;16.038;2024-01-06T09:15:59;74.35;;;37.42;;
84591;SDS011;74826;50.812;16.038;2024-01-06T09:18:25;83.53;;;42.17;;
84591;SDS011;74826;50.812;16.038;2024-01-06T09:20:51;64.85;;;28.17;;
84591;SDS011;74826;50.812;16.038;2024-01-06T09:23:17;57.03;;;26.02;;
84591;SDS011;74826;50.812;16.038;2024-01-06T09:25:42;71.68;;;33.47;;
84591;SDS011;74826;50.812;16.038;2024-01-06T09:28:08;80.95;;;36.70;;
84591;SDS011;74826;50.812;16.038;2024-01-06T09:30:33;68.50;;;30.38;;
84591;SDS011;74826;50.812;16.038;2024-01-06T09:32:59;72.88;;;32.45;;
84591;SDS011;74826;50.812;16.038;2024-01-06T09:35:24;68.22;;;31.33;;
84591;SDS011;74826;50.812;16.038;2024-01-06T09:37:49;63.15;;;27.67;;
84591;SDS011;74826;50.812;16.038;2024-01-06T09:40:18;61.83;;;29.38;;
84591;SDS011;74826;50.812;16.038;2024-01-06T09:42:46;69.13;;;33.85;;
84591;SDS011;74826;50.812;16.038;2024-01-06T09:45:11;71.55;;;32.95;;
84591;SDS011;74826;50.812;16.038;2024-01-06T09:47:37;84.22;;;39.00;;
84591;SDS011;74826;50.812;16.038;2024-01-06T09:50:08;85.22;;;40.35;;
84591;SDS011;74826;50.812;16.038;2024-01-06T09:52:37;65.30;;;27.70;;
84591;SDS011;74826;50.812;16.038;2024-01-06T09:55:11;60.90;;;28.75;;
84591;SDS011;74826;50.812;16.038;2024-01-06T09:57:37;35.38;;;17.85;;
84591;SDS011;74826;50.812;16.038;2024-01-06T10:00:03;22.25;;;11.32;;
84591;SDS011;74826;50.812;16.038;2024-01-06T10:02:33;23.30;;;11.45;;
84591;SDS011;74826;50.812;16.038;2024-01-06T10:04:58;52.60;;;23.60;;
84591;SDS011;74826;50.812;16.038;2024-01-06T10:07:27;49.05;;;23.70;;
84591;SDS011;74826;50.812;16.038;2024-01-06T10:09:56;50.83;;;22.70;;
84591;SDS011;74826;50.812;16.038;2024-01-06T10:12:25;53.28;;;22.92;;
84591;SDS011;74826;50.812;16.038;2024-01-06T10:14:51;45.53;;;20.30;;
84591;SDS011;74826;50.812;16.038;2024-01-06T10:17:16;52.85;;;21.40;;
84591;SDS011;74826;50.812;16.038;2024-01-06T10:19:44;51.72;;;20.63;;
84591;SDS011;74826;50.812;16.038;2024-01-06T10:22:10;50.60;;;22.05;;
84591;SDS011;74826;50.812;16.038;2024-01-06T10:24:38;47.40;;;21.05;;
84591;SDS011;74826;50.812;16.038;2024-01-06T10:27:04;45.60;;;20.73;;
84591;SDS011;74826;50.812;16.038;2024-01-06T10:29:30;59.13;;;26.13;;
84591;SDS011;74826;50.812;16.038;2024-01-06T10:31:55;43.38;;;18.20;;
84591;SDS011;74826;50.812;16.038;2024-01-06T10:34:21;39.10;;;17.77;;
84591;SDS011;74826;50.812;16.038;2024-01-06T10:36:48;49.35;;;23.77;;
84591;SDS011;74826;50.812;16.038;2024-01-06T10:39:14;33.45;;;15.27;;
84591;SDS011;74826;50.812;16.038;2024-01-06T10:44:07;36.58;;;15.18;;
84591;SDS011;74826;50.812;16.038;2024-01-06T10:46:34;34.28;;;16.05;;
84591;SDS011;74826;50.812;16.038;2024-01-06T10:49:01;38.28;;;17.70;;
84591;SDS011;74826;50.812;16.038;2024-01-06T10:51:35;42.50;;;19.23;;
84591;SDS011;74826;50.812;16.038;2024-01-06T10:54:02;38.50;;;17.63;;
84591;SDS011;74826;50.812;16.038;2024-01-06T10:56:28;37.05;;;16.48;;
84591;SDS011;74826;50.812;16.038;2024-01-06T10:58:55;62.97;;;26.90;;
84591;SDS011;74826;50.812;16.038;2024-01-06T11:01:22;68.45;;;31.52;;
84591;SDS011;74826;50.812;16.038;2024-01-06T11:03:52;44.10;;;18.88;;
84591;SDS011;74826;50.812;16.038;2024-01-06T11:06:20;44.50;;;18.13;;
84591;SDS011;74826;50.812;16.038;2024-01-06T11:11:35;39.33;;;17.23;;
84591;SDS011;74826;50.812;16.038;2024-01-06T11:16:50;41.92;;;18.27;;
84591;SDS011;74826;50.812;16.038;2024-01-06T11:25:12;86.78;;;37.20;;
84591;SDS011;74826;50.812;16.038;2024-01-06T11:27:39;74.75;;;32.80;;
84591;SDS011;74826;50.812;16.038;2024-01-06T11:30:07;50.15;;;22.38;;
84591;SDS011;74826;50.812;16.038;2024-01-06T11:32:33;56.10;;;20.25;;
84591;SDS011;74826;50.812;16.038;2024-01-06T11:35:05;72.22;;;26.90;;
84591;SDS011;74826;50.812;16.038;2024-01-06T11:40:10;67.00;;;28.55;;
84591;SDS011;74826;50.812;16.038;2024-01-06T11:42:45;53.55;;;20.70;;
84591;SDS011;74826;50.812;16.038;2024-01-06T11:45:12;56.65;;;23.80;;
84591;SDS011;74826;50.812;16.038;2024-01-06T11:50:04;50.30;;;17.27;;
84591;SDS011;74826;50.812;16.038;2024-01-06T11:52:33;57.40;;;22.42;;
84591;SDS011;74826;50.812;16.038;2024-01-06T11:55:00;44.83;;;18.52;;
84591;SDS011;74826;50.812;16.038;2024-01-06T11:57:26;46.67;;;19.15;;
84591;SDS011;74826;50.812;16.038;2024-01-06T11:59:52;58.10;;;22.60;;
84591;SDS011;74826;50.812;16.038;2024-01-06T12:02:18;42.38;;;19.05;;
84591;SDS011;74826;50.812;16.038;2024-01-06T12:04:50;43.17;;;18.63;;
84591;SDS011;74826;50.812;16.038;2024-01-06T12:07:17;48.53;;;20.77;;
84591;SDS011;74826;50.812;16.038;2024-01-06T12:12:08;41.25;;;16.10;;
84591;SDS011;74826;50.812;16.038;2024-01-06T12:14:40;44.72;;;17.40;;
84591;SDS011;74826;50.812;16.038;2024-01-06T12:17:07;41.47;;;17.48;;
84591;SDS011;74826;50.812;16.038;2024-01-06T12:19:33;45.50;;;19.80;;
84591;SDS011;74826;50.812;16.038;2024-01-06T12:21:58;41.55;;;17.75;;
84591;SDS011;74826;50.812;16.038;2024-01-06T12:24:26;40.47;;;17.35;;
84591;SDS011;74826;50.812;16.038;2024-01-06T12:26:54;43.08;;;16.35;;
84591;SDS011;74826;50.812;16.038;2024-01-06T12:29:20;42.65;;;15.02;;
84591;SDS011;74826;50.812;16.038;2024-01-06T12:31:46;38.40;;;15.85;;
84591;SDS011;74826;50.812;16.038;2024-01-06T12:34:11;37.65;;;16.33;;
84591;SDS011;74826;50.812;16.038;2024-01-06T12:36:37;36.72;;;15.98;;
84591;SDS011;74826;50.812;16.038;2024-01-06T12:39:04;32.10;;;14.43;;
84591;SDS011;74826;50.812;16.038;2024-01-06T12:41:30;30.02;;;13.07;;
84591;SDS011;74826;50.812;16.038;2024-01-06T12:43:58;28.85;;;12.90;;
84591;SDS011;74826;50.812;16.038;2024-01-06T12:46:25;30.77;;;14.55;;
84591;SDS011;74826;50.812;16.038;2024-01-06T12:48:51;30.33;;;13.70;;
84591;SDS011;74826;50.812;16.038;2024-01-06T12:51:17;28.70;;;11.73;;
84591;SDS011;74826;50.812;16.038;2024-01-06T12:53:42;31.25;;;12.50;;
84591;SDS011;74826;50.812;16.038;2024-01-06T12:56:07;24.80;;;11.45;;
84591;SDS011;74826;50.812;16.038;2024-01-06T12:58:33;27.88;;;12.30;;
84591;SDS011;74826;50.812;16.038;2024-01-06T13:00:59;26.50;;;12.27;;
84591;SDS011;74826;50.812;16.038;2024-01-06T13:03:24;36.35;;;17.25;;
84591;SDS011;74826;50.812;16.038;2024-01-06T13:05:49;32.08;;;13.68;;
84591;SDS011;74826;50.812;16.038;2024-01-06T13:08:15;33.60;;;17.35;;
84591;SDS011;74826;50.812;16.038;2024-01-06T13:10:41;30.17;;;14.88;;
84591;SDS011;74826;50.812;16.038;2024-01-06T13:13:06;27.85;;;12.43;;
84591;SDS011;74826;50.812;16.038;2024-01-06T13:15:31;34.90;;;14.73;;
84591;SDS011;74826;50.812;16.038;2024-01-06T13:17:57;27.77;;;12.95;;
84591;SDS011;74826;50.812;16.038;2024-01-06T13:20:22;30.02;;;12.82;;
84591;SDS011;74826;50.812;16.038;2024-01-06T13:22:48;33.28;;;12.85;;
84591;SDS011;74826;50.812;16.038;2024-01-06T13:25:13;36.10;;;12.88;;
84591;SDS011;74826;50.812;16.038;2024-01-06T13:30:05;35.13;;;15.57;;
84591;SDS011;74826;50.812;16.038;2024-01-06T13:32:31;29.60;;;12.88;;
84591;SDS011;74826;50.812;16.038;2024-01-06T13:34:57;41.75;;;15.77;;
84591;SDS011;74826;50.812;16.038;2024-01-06T13:37:29;40.03;;;16.23;;
84591;SDS011;74826;50.812;16.038;2024-01-06T13:39:55;39.75;;;16.60;;
84591;SDS011;74826;50.812;16.038;2024-01-06T13:42:20;42.78;;;16.60;;
84591;SDS011;74826;50.812;16.038;2024-01-06T13:44:46;43.00;;;17.40;;
84591;SDS011;74826;50.812;16.038;2024-01-06T13:47:13;43.55;;;17.27;;
84591;SDS011;74826;50.812;16.038;2024-01-06T13:49:39;52.85;;;19.60;;
84591;SDS011;74826;50.812;16.038;2024-01-06T13:52:04;57.25;;;20.45;;
84591;SDS011;74826;50.812;16.038;2024-01-06T13:54:30;52.03;;;19.25;;
84591;SDS011;74826;50.812;16.038;2024-01-06T13:56:55;63.20;;;20.30;;
84591;SDS011;74826;50.812;16.038;2024-01-06T13:59:21;60.95;;;20.88;;
84591;SDS011;74826;50.812;16.038;2024-01-06T14:01:47;46.75;;;18.73;;
84591;SDS011;74826;50.812;16.038;2024-01-06T14:04:12;61.65;;;19.10;;
84591;SDS011;74826;50.812;16.038;2024-01-06T14:06:38;71.85;;;21.40;;
84591;SDS011;74826;50.812;16.038;2024-01-06T14:09:05;70.18;;;19.75;;
84591;SDS011;74826;50.812;16.038;2024-01-06T14:11:30;69.68;;;22.77;;
84591;SDS011;74826;50.812;16.038;2024-01-06T14:13:59;68.88;;;21.65;;
84591;SDS011;74826;50.812;16.038;2024-01-06T14:16:24;70.20;;;23.38;;
84591;SDS011;74826;50.812;16.038;2024-01-06T14:18:49;68.07;;;23.48;;
84591;SDS011;74826;50.812;16.038;2024-01-06T14:21:15;67.75;;;25.92;;
84591;SDS011;74826;50.812;16.038;2024-01-06T14:23:43;62.22;;;22.40;;
84591;SDS011;74826;50.812;16.038;2024-01-06T14:26:08;68.40;;;22.50;;
84591;SDS011;74826;50.812;16.038;2024-01-06T14:28:34;66.68;;;23.95;;
84591;SDS011;74826;50.812;16.038;2024-01-06T14:31:00;66.13;;;25.08;;
84591;SDS011;74826;50.812;16.038;2024-01-06T14:33:25;71.70;;;24.20;;